sensor_id;sensor_type;location;lat;lon;timestamp;P1;durP1;ratioP1;P2;durP2;ratioP2
44832;SDS011;30569;51.252;9.830;2023-04-25T00:02:02;12.23;;;4.87;;
44832;SDS011;30569;51.252;9.830;2023-04-25T00:04:28;7.60;;;4.10;;
44832;SDS011;30569;51.252;9.830;2023-04-25T00:06:54;7.30;;;3.97;;
44832;SDS011;30569;51.252;9.830;2023-04-25T00:09:20;9.80;;;3.87;;
44832;SDS011;30569;51.252;9.830;2023-04-25T00:11:47;7.50;;;4.17;;
44832;SDS011;30569;51.252;9.830;2023-04-25T00:14:12;9.30;;;4.13;;
44832;SDS011;30569;51.252;9.830;2023-04-25T00:16:38;8.70;;;4.20;;
44832;SDS011;30569;51.252;9.830;2023-04-25T00:19:06;8.13;;;4.17;;
44832;SDS011;30569;51.252;9.830;2023-04-25T00:21:32;7.83;;;4.60;;
44832;SDS011;30569;51.252;9.830;2023-04-25T00:23:58;6.07;;;3.77;;
44832;SDS011;30569;51.252;9.830;2023-04-25T00:26:24;9.00;;;4.10;;
44832;SDS011;30569;51.252;9.830;2023-04-25T00:28:50;8.40;;;4.27;;
44832;SDS011;30569;51.252;9.830;2023-04-25T00:31:15;7.17;;;3.80;;
44832;SDS011;30569;51.252;9.830;2023-04-25T00:33:41;8.60;;;4.47;;
44832;SDS011;30569;51.252;9.830;2023-04-25T00:36:07;9.93;;;4.67;;
44832;SDS011;30569;51.252;9.830;2023-04-25T00:38:33;7.83;;;4.23;;
44832;SDS011;30569;51.252;9.830;2023-04-25T00:40:58;8.73;;;4.23;;
44832;SDS011;30569;51.252;9.830;2023-04-25T00:43:27;7.20;;;4.37;;
44832;SDS011;30569;51.252;9.830;2023-04-25T00:45:55;8.37;;;4.60;;
44832;SDS011;30569;51.252;9.830;2023-04-25T00:48:22;8.53;;;4.37;;
44832;SDS011;30569;51.252;9.830;2023-04-25T00:50:51;9.93;;;4.60;;
44832;SDS011;30569;51.252;9.830;2023-04-25T00:53:19;11.03;;;5.60;;
44832;SDS011;30569;51.252;9.830;2023-04-25T00:55:46;10.60;;;4.77;;
44832;SDS011;30569;51.252;9.830;2023-04-25T00:58:12;9.17;;;5.07;;
44832;SDS011;30569;51.252;9.830;2023-04-25T01:00:38;7.67;;;4.17;;
44832;SDS011;30569;51.252;9.830;2023-04-25T01:03:05;14.37;;;4.97;;
44832;SDS011;30569;51.252;9.830;2023-04-25T01:05:31;10.50;;;4.30;;
44832;SDS011;30569;51.252;9.830;2023-04-25T01:07:56;8.23;;;4.20;;
44832;SDS011;30569;51.252;9.830;2023-04-25T01:10:22;9.40;;;4.20;;
44832;SDS011;30569;51.252;9.830;2023-04-25T01:12:48;6.30;;;3.80;;
44832;SDS011;30569;51.252;9.830;2023-04-25T01:15:13;6.47;;;3.87;;
44832;SDS011;30569;51.252;9.830;2023-04-25T01:17:39;6.83;;;3.80;;
44832;SDS011;30569;51.252;9.830;2023-04-25T01:20:06;8.03;;;3.90;;
44832;SDS011;30569;51.252;9.830;2023-04-25T01:22:34;8.17;;;4.20;;
44832;SDS011;30569;51.252;9.830;2023-04-25T01:25:00;6.57;;;3.90;;
44832;SDS011;30569;51.252;9.830;2023-04-25T01:27:25;7.50;;;4.23;;
44832;SDS011;30569;51.252;9.830;2023-04-25T01:29:52;7.23;;;4.33;;
44832;SDS011;30569;51.252;9.830;2023-04-25T01:32:19;6.97;;;4.40;;
44832;SDS011;30569;51.252;9.830;2023-04-25T01:34:45;7.10;;;3.80;;
44832;SDS011;30569;51.252;9.830;2023-04-25T01:37:11;7.87;;;4.30;;
44832;SDS011;30569;51.252;9.830;2023-04-25T01:39:37;9.80;;;4.07;;
44832;SDS011;30569;51.252;9.830;2023-04-25T01:42:02;8.60;;;4.20;;
44832;SDS011;30569;51.252;9.830;2023-04-25T01:44:28;8.37;;;4.07;;
44832;SDS011;30569;51.252;9.830;2023-04-25T01:46:53;8.87;;;4.30;;
44832;SDS011;30569;51.252;9.830;2023-04-25T01:49:19;6.70;;;4.43;;
44832;SDS011;30569;51.252;9.830;2023-04-25T01:51:45;11.33;;;4.30;;
44832;SDS011;30569;51.252;9.830;2023-04-25T01:54:10;8.93;;;4.77;;
44832;SDS011;30569;51.252;9.830;2023-04-25T01:56:37;11.53;;;5.40;;
44832;SDS011;30569;51.252;9.830;2023-04-25T01:59:04;10.33;;;4.90;;
44832;SDS011;30569;51.252;9.830;2023-04-25T02:01:30;12.47;;;5.37;;
44832;SDS011;30569;51.252;9.830;2023-04-25T02:03:56;7.97;;;4.70;;
44832;SDS011;30569;51.252;9.830;2023-04-25T02:06:22;8.03;;;4.90;;
44832;SDS011;30569;51.252;9.830;2023-04-25T02:08:47;8.80;;;5.37;;
44832;SDS011;30569;51.252;9.830;2023-04-25T02:11:13;10.67;;;5.53;;
44832;SDS011;30569;51.252;9.830;2023-04-25T02:13:38;10.13;;;5.90;;
44832;SDS011;30569;51.252;9.830;2023-04-25T02:16:04;12.33;;;5.30;;
44832;SDS011;30569;51.252;9.830;2023-04-25T02:18:30;7.60;;;4.70;;
44832;SDS011;30569;51.252;9.830;2023-04-25T02:20:56;11.57;;;5.33;;
44832;SDS011;30569;51.252;9.830;2023-04-25T02:23:22;12.57;;;5.83;;
44832;SDS011;30569;51.252;9.830;2023-04-25T02:25:48;10.50;;;5.33;;
44832;SDS011;30569;51.252;9.830;2023-04-25T02:28:14;8.93;;;5.30;;
44832;SDS011;30569;51.252;9.830;2023-04-25T02:30:40;8.30;;;5.67;;
44832;SDS011;30569;51.252;9.830;2023-04-25T02:33:06;10.80;;;5.90;;
44832;SDS011;30569;51.252;9.830;2023-04-25T02:35:31;9.50;;;5.90;;
44832;SDS011;30569;51.252;9.830;2023-04-25T02:37:57;9.50;;;5.70;;
44832;SDS011;30569;51.252;9.830;2023-04-25T02:40:22;13.27;;;6.20;;
44832;SDS011;30569;51.252;9.830;2023-04-25T02:42:48;13.87;;;6.90;;
44832;SDS011;30569;51.252;9.830;2023-04-25T02:45:13;10.20;;;6.53;;
44832;SDS011;30569;51.252;9.830;2023-04-25T02:47:39;12.03;;;6.00;;
44832;SDS011;30569;51.252;9.830;2023-04-25T02:50:05;9.70;;;6.70;;
44832;SDS011;30569;51.252;9.830;2023-04-25T02:52:31;9.60;;;5.70;;
44832;SDS011;30569;51.252;9.830;2023-04-25T02:54:56;7.83;;;5.87;;
44832;SDS011;30569;51.252;9.830;2023-04-25T02:57:22;12.70;;;6.53;;
44832;SDS011;30569;51.252;9.830;2023-04-25T02:59:47;12.17;;;6.53;;
44832;SDS011;30569;51.252;9.830;2023-04-25T03:02:13;11.70;;;6.40;;
44832;SDS011;30569;51.252;9.830;2023-04-25T03:04:39;10.30;;;5.53;;
44832;SDS011;30569;51.252;9.830;2023-04-25T03:07:04;9.60;;;6.13;;
44832;SDS011;30569;51.252;9.830;2023-04-25T03:09:30;12.93;;;6.63;;
44832;SDS011;30569;51.252;9.830;2023-04-25T03:11:56;11.27;;;6.07;;
44832;SDS011;30569;51.252;9.830;2023-04-25T03:14:21;9.73;;;6.20;;
44832;SDS011;30569;51.252;9.830;2023-04-25T03:16:47;16.20;;;6.47;;
44832;SDS011;30569;51.252;9.830;2023-04-25T03:19:12;14.80;;;6.77;;
44832;SDS011;30569;51.252;9.830;2023-04-25T03:21:40;14.10;;;6.50;;
44832;SDS011;30569;51.252;9.830;2023-04-25T03:24:06;12.50;;;6.57;;
44832;SDS011;30569;51.252;9.830;2023-04-25T03:26:31;12.20;;;6.30;;
44832;SDS011;30569;51.252;9.830;2023-04-25T03:28:57;13.73;;;6.83;;
44832;SDS011;30569;51.252;9.830;2023-04-25T03:31:23;15.63;;;6.87;;
44832;SDS011;30569;51.252;9.830;2023-04-25T03:33:48;11.07;;;6.90;;
44832;SDS011;30569;51.252;9.830;2023-04-25T03:36:14;17.03;;;6.60;;
44832;SDS011;30569;51.252;9.830;2023-04-25T03:38:39;14.83;;;6.60;;
44832;SDS011;30569;51.252;9.830;2023-04-25T03:41:06;13.87;;;6.60;;
44832;SDS011;30569;51.252;9.830;2023-04-25T03:43:32;18.20;;;6.57;;
44832;SDS011;30569;51.252;9.830;2023-04-25T03:45:58;9.97;;;5.87;;
44832;SDS011;30569;51.252;9.830;2023-04-25T03:48:23;16.67;;;6.20;;
44832;SDS011;30569;51.252;9.830;2023-04-25T03:50:50;17.97;;;6.30;;
44832;SDS011;30569;51.252;9.830;2023-04-25T03:53:16;12.07;;;6.40;;
44832;SDS011;30569;51.252;9.830;2023-04-25T03:55:42;12.97;;;6.53;;
44832;SDS011;30569;51.252;9.830;2023-04-25T03:58:07;13.67;;;6.63;;
44832;SDS011;30569;51.252;9.830;2023-04-25T04:00:33;14.10;;;6.00;;
44832;SDS011;30569;51.252;9.830;2023-04-25T04:03:00;12.87;;;5.87;;
44832;SDS011;30569;51.252;9.830;2023-04-25T04:05:25;10.47;;;5.67;;
44832;SDS011;30569;51.252;9.830;2023-04-25T04:07:51;11.47;;;5.47;;
44832;SDS011;30569;51.252;9.830;2023-04-25T04:10:16;12.23;;;5.67;;
44832;SDS011;30569;51.252;9.830;2023-04-25T04:12:42;15.23;;;6.40;;
44832;SDS011;30569;51.252;9.830;2023-04-25T04:15:08;10.77;;;5.70;;
44832;SDS011;30569;51.252;9.830;2023-04-25T04:17:34;10.33;;;5.67;;
44832;SDS011;30569;51.252;9.830;2023-04-25T04:20:00;11.47;;;5.67;;
44832;SDS011;30569;51.252;9.830;2023-04-25T04:22:25;11.20;;;4.90;;
44832;SDS011;30569;51.252;9.830;2023-04-25T04:24:51;14.43;;;6.03;;
44832;SDS011;30569;51.252;9.830;2023-04-25T04:27:17;9.97;;;5.40;;
44832;SDS011;30569;51.252;9.830;2023-04-25T04:29:44;13.50;;;5.30;;
44832;SDS011;30569;51.252;9.830;2023-04-25T04:32:10;9.87;;;5.40;;
44832;SDS011;30569;51.252;9.830;2023-04-25T04:34:36;12.33;;;5.20;;
44832;SDS011;30569;51.252;9.830;2023-04-25T04:37:02;8.70;;;5.13;;
44832;SDS011;30569;51.252;9.830;2023-04-25T04:39:28;9.63;;;5.30;;
44832;SDS011;30569;51.252;9.830;2023-04-25T04:41:53;10.43;;;4.60;;
44832;SDS011;30569;51.252;9.830;2023-04-25T04:44:19;13.30;;;5.10;;
44832;SDS011;30569;51.252;9.830;2023-04-25T04:46:45;9.83;;;4.80;;
44832;SDS011;30569;51.252;9.830;2023-04-25T04:49:11;12.40;;;5.07;;
44832;SDS011;30569;51.252;9.830;2023-04-25T04:51:38;9.97;;;4.93;;
44832;SDS011;30569;51.252;9.830;2023-04-25T04:54:05;9.93;;;5.20;;
44832;SDS011;30569;51.252;9.830;2023-04-25T04:56:31;8.03;;;4.80;;
44832;SDS011;30569;51.252;9.830;2023-04-25T04:58:57;10.63;;;5.57;;
44832;SDS011;30569;51.252;9.830;2023-04-25T05:01:23;10.97;;;5.13;;
44832;SDS011;30569;51.252;9.830;2023-04-25T05:03:49;11.47;;;5.60;;
44832;SDS011;30569;51.252;9.830;2023-04-25T05:06:16;10.87;;;5.30;;
44832;SDS011;30569;51.252;9.830;2023-04-25T05:08:42;16.47;;;6.27;;
44832;SDS011;30569;51.252;9.830;2023-04-25T05:11:08;11.70;;;6.23;;
44832;SDS011;30569;51.252;9.830;2023-04-25T05:13:34;10.33;;;4.63;;
44832;SDS011;30569;51.252;9.830;2023-04-25T05:15:59;11.93;;;5.90;;
44832;SDS011;30569;51.252;9.830;2023-04-25T05:18:25;12.97;;;6.10;;
44832;SDS011;30569;51.252;9.830;2023-04-25T05:20:51;13.03;;;6.30;;
44832;SDS011;30569;51.252;9.830;2023-04-25T05:23:16;13.00;;;6.23;;
44832;SDS011;30569;51.252;9.830;2023-04-25T05:25:42;14.53;;;5.77;;
44832;SDS011;30569;51.252;9.830;2023-04-25T05:28:10;10.37;;;6.27;;
44832;SDS011;30569;51.252;9.830;2023-04-25T05:30:37;12.20;;;5.90;;
44832;SDS011;30569;51.252;9.830;2023-04-25T05:33:02;10.97;;;6.20;;
44832;SDS011;30569;51.252;9.830;2023-04-25T05:35:28;12.20;;;6.60;;
44832;SDS011;30569;51.252;9.830;2023-04-25T05:37:53;10.50;;;5.87;;
44832;SDS011;30569;51.252;9.830;2023-04-25T05:40:19;12.27;;;5.80;;
44832;SDS011;30569;51.252;9.830;2023-04-25T05:42:45;10.10;;;5.23;;
44832;SDS011;30569;51.252;9.830;2023-04-25T05:45:11;11.83;;;6.10;;
44832;SDS011;30569;51.252;9.830;2023-04-25T05:47:36;12.20;;;5.20;;
44832;SDS011;30569;51.252;9.830;2023-04-25T05:50:02;11.80;;;5.57;;
44832;SDS011;30569;51.252;9.830;2023-04-25T05:52:27;12.73;;;5.70;;
44832;SDS011;30569;51.252;9.830;2023-04-25T05:54:53;9.23;;;5.60;;
44832;SDS011;30569;51.252;9.830;2023-04-25T05:57:19;11.80;;;5.80;;
44832;SDS011;30569;51.252;9.830;2023-04-25T05:59:49;11.70;;;6.13;;
44832;SDS011;30569;51.252;9.830;2023-04-25T06:02:15;13.03;;;6.00;;
44832;SDS011;30569;51.252;9.830;2023-04-25T06:04:41;12.63;;;5.80;;
44832;SDS011;30569;51.252;9.830;2023-04-25T06:07:06;11.37;;;5.73;;
44832;SDS011;30569;51.252;9.830;2023-04-25T06:09:32;15.30;;;7.57;;
44832;SDS011;30569;51.252;9.830;2023-04-25T06:11:59;15.20;;;6.20;;
44832;SDS011;30569;51.252;9.830;2023-04-25T06:14:24;18.33;;;9.50;;
44832;SDS011;30569;51.252;9.830;2023-04-25T06:16:50;9.07;;;5.60;;
44832;SDS011;30569;51.252;9.830;2023-04-25T06:19:15;12.13;;;7.03;;
44832;SDS011;30569;51.252;9.830;2023-04-25T06:21:43;11.02;;;6.45;;
44832;SDS011;30569;51.252;9.830;2023-04-25T06:24:09;15.50;;;7.45;;
44832;SDS011;30569;51.252;9.830;2023-04-25T06:26:34;10.45;;;5.63;;
44832;SDS011;30569;51.252;9.830;2023-04-25T06:29:00;10.13;;;5.75;;
44832;SDS011;30569;51.252;9.830;2023-04-25T06:31:25;8.90;;;4.65;;
44832;SDS011;30569;51.252;9.830;2023-04-25T06:33:57;6.40;;;4.32;;
44832;SDS011;30569;51.252;9.830;2023-04-25T06:36:22;7.20;;;3.92;;
44832;SDS011;30569;51.252;9.830;2023-04-25T06:38:53;7.75;;;3.88;;
44832;SDS011;30569;51.252;9.830;2023-04-25T06:41:19;9.30;;;4.53;;
44832;SDS011;30569;51.252;9.830;2023-04-25T06:43:45;7.53;;;4.60;;
44832;SDS011;30569;51.252;9.830;2023-04-25T06:46:11;7.72;;;3.95;;
44832;SDS011;30569;51.252;9.830;2023-04-25T06:48:37;6.65;;;3.22;;
44832;SDS011;30569;51.252;9.830;2023-04-25T06:51:03;6.13;;;3.53;;
44832;SDS011;30569;51.252;9.830;2023-04-25T06:53:29;8.80;;;3.85;;
44832;SDS011;30569;51.252;9.830;2023-04-25T06:55:54;8.50;;;3.90;;
44832;SDS011;30569;51.252;9.830;2023-04-25T06:58:20;12.13;;;3.83;;
44832;SDS011;30569;51.252;9.830;2023-04-25T07:00:45;10.48;;;4.00;;
44832;SDS011;30569;51.252;9.830;2023-04-25T07:03:11;7.38;;;2.90;;
44832;SDS011;30569;51.252;9.830;2023-04-25T07:05:36;4.57;;;1.92;;
44832;SDS011;30569;51.252;9.830;2023-04-25T07:08:02;4.53;;;2.30;;
44832;SDS011;30569;51.252;9.830;2023-04-25T07:10:28;5.80;;;2.53;;
44832;SDS011;30569;51.252;9.830;2023-04-25T07:12:53;4.50;;;2.30;;
44832;SDS011;30569;51.252;9.830;2023-04-25T07:15:19;4.13;;;2.10;;
44832;SDS011;30569;51.252;9.830;2023-04-25T07:17:45;6.23;;;2.17;;
44832;SDS011;30569;51.252;9.830;2023-04-25T07:20:11;3.65;;;1.77;;
44832;SDS011;30569;51.252;9.830;2023-04-25T07:22:36;4.05;;;2.17;;
44832;SDS011;30569;51.252;9.830;2023-04-25T07:25:02;3.80;;;1.95;;
44832;SDS011;30569;51.252;9.830;2023-04-25T07:27:29;5.45;;;2.08;;
44832;SDS011;30569;51.252;9.830;2023-04-25T07:29:55;6.57;;;1.85;;
44832;SDS011;30569;51.252;9.830;2023-04-25T07:32:20;4.95;;;2.00;;
44832;SDS011;30569;51.252;9.830;2023-04-25T07:34:46;7.53;;;3.30;;
44832;SDS011;30569;51.252;9.830;2023-04-25T07:37:11;7.85;;;3.45;;
44832;SDS011;30569;51.252;9.830;2023-04-25T07:39:37;11.27;;;3.60;;
44832;SDS011;30569;51.252;9.830;2023-04-25T07:42:03;15.43;;;4.53;;
44832;SDS011;30569;51.252;9.830;2023-04-25T07:44:29;14.73;;;4.50;;
44832;SDS011;30569;51.252;9.830;2023-04-25T07:46:55;9.57;;;3.22;;
44832;SDS011;30569;51.252;9.830;2023-04-25T07:49:21;12.00;;;4.03;;
44832;SDS011;30569;51.252;9.830;2023-04-25T07:51:46;9.07;;;3.08;;
44832;SDS011;30569;51.252;9.830;2023-04-25T07:54:13;13.32;;;3.72;;
44832;SDS011;30569;51.252;9.830;2023-04-25T07:56:39;10.27;;;3.72;;
44832;SDS011;30569;51.252;9.830;2023-04-25T07:59:05;12.00;;;5.25;;
44832;SDS011;30569;51.252;9.830;2023-04-25T08:01:31;14.98;;;4.80;;
44832;SDS011;30569;51.252;9.830;2023-04-25T08:03:56;13.40;;;4.10;;
44832;SDS011;30569;51.252;9.830;2023-04-25T08:06:22;9.07;;;3.92;;
44832;SDS011;30569;51.252;9.830;2023-04-25T08:08:47;12.23;;;3.90;;
44832;SDS011;30569;51.252;9.830;2023-04-25T08:11:13;12.63;;;3.65;;
44832;SDS011;30569;51.252;9.830;2023-04-25T08:13:38;12.98;;;4.10;;
44832;SDS011;30569;51.252;9.830;2023-04-25T08:16:04;11.25;;;3.72;;
44832;SDS011;30569;51.252;9.830;2023-04-25T08:18:30;10.55;;;3.22;;
44832;SDS011;30569;51.252;9.830;2023-04-25T08:20:55;11.15;;;3.63;;
44832;SDS011;30569;51.252;9.830;2023-04-25T08:23:21;14.48;;;5.35;;
44832;SDS011;30569;51.252;9.830;2023-04-25T08:25:47;17.88;;;7.32;;
44832;SDS011;30569;51.252;9.830;2023-04-25T08:28:12;15.98;;;5.15;;
44832;SDS011;30569;51.252;9.830;2023-04-25T08:30:40;14.95;;;4.10;;
44832;SDS011;30569;51.252;9.830;2023-04-25T08:33:05;16.23;;;4.65;;
44832;SDS011;30569;51.252;9.830;2023-04-25T08:35:31;11.70;;;3.53;;
44832;SDS011;30569;51.252;9.830;2023-04-25T08:37:58;12.20;;;4.05;;
44832;SDS011;30569;51.252;9.830;2023-04-25T08:40:23;14.68;;;5.38;;
44832;SDS011;30569;51.252;9.830;2023-04-25T08:42:55;15.57;;;5.60;;
44832;SDS011;30569;51.252;9.830;2023-04-25T08:45:22;15.18;;;3.28;;
44832;SDS011;30569;51.252;9.830;2023-04-25T08:47:47;13.63;;;3.60;;
44832;SDS011;30569;51.252;9.830;2023-04-25T08:50:17;13.13;;;5.15;;
44832;SDS011;30569;51.252;9.830;2023-04-25T08:52:46;10.75;;;3.55;;
44832;SDS011;30569;51.252;9.830;2023-04-25T08:55:13;18.85;;;3.53;;
44832;SDS011;30569;51.252;9.830;2023-04-25T08:57:40;15.77;;;3.90;;
44832;SDS011;30569;51.252;9.830;2023-04-25T09:00:08;13.57;;;4.75;;
44832;SDS011;30569;51.252;9.830;2023-04-25T09:02:35;13.85;;;3.92;;
44832;SDS011;30569;51.252;9.830;2023-04-25T09:05:01;17.52;;;5.22;;
44832;SDS011;30569;51.252;9.830;2023-04-25T09:07:29;13.98;;;5.05;;
44832;SDS011;30569;51.252;9.830;2023-04-25T09:09:55;14.77;;;4.13;;
44832;SDS011;30569;51.252;9.830;2023-04-25T09:12:20;12.75;;;4.05;;
44832;SDS011;30569;51.252;9.830;2023-04-25T09:17:29;12.20;;;3.38;;
44832;SDS011;30569;51.252;9.830;2023-04-25T09:19:54;14.52;;;3.42;;
44832;SDS011;30569;51.252;9.830;2023-04-25T09:22:29;13.35;;;3.85;;
44832;SDS011;30569;51.252;9.830;2023-04-25T09:24:55;12.70;;;3.72;;
44832;SDS011;30569;51.252;9.830;2023-04-25T09:27:21;9.38;;;3.60;;
44832;SDS011;30569;51.252;9.830;2023-04-25T09:29:56;12.30;;;3.88;;
44832;SDS011;30569;51.252;9.830;2023-04-25T09:32:25;12.95;;;3.78;;
44832;SDS011;30569;51.252;9.830;2023-04-25T09:34:54;12.65;;;3.10;;
44832;SDS011;30569;51.252;9.830;2023-04-25T09:37:28;13.68;;;4.15;;
44832;SDS011;30569;51.252;9.830;2023-04-25T09:39:55;13.75;;;3.83;;
44832;SDS011;30569;51.252;9.830;2023-04-25T09:42:24;13.73;;;3.13;;
44832;SDS011;30569;51.252;9.830;2023-04-25T09:44:52;13.63;;;4.00;;
44832;SDS011;30569;51.252;9.830;2023-04-25T09:47:18;16.13;;;3.13;;
44832;SDS011;30569;51.252;9.830;2023-04-25T09:49:46;14.27;;;3.28;;
44832;SDS011;30569;51.252;9.830;2023-04-25T09:52:16;13.30;;;3.58;;
44832;SDS011;30569;51.252;9.830;2023-04-25T09:57:15;10.45;;;2.67;;
44832;SDS011;30569;51.252;9.830;2023-04-25T09:59:43;9.27;;;2.58;;
44832;SDS011;30569;51.252;9.830;2023-04-25T10:02:16;9.13;;;2.50;;
44832;SDS011;30569;51.252;9.830;2023-04-25T10:04:52;11.02;;;2.63;;
44832;SDS011;30569;51.252;9.830;2023-04-25T10:07:23;14.05;;;2.90;;
44832;SDS011;30569;51.252;9.830;2023-04-25T10:10:00;12.10;;;2.17;;
44832;SDS011;30569;51.252;9.830;2023-04-25T10:12:27;10.30;;;3.00;;
44832;SDS011;30569;51.252;9.830;2023-04-25T10:14:54;9.65;;;3.42;;
44832;SDS011;30569;51.252;9.830;2023-04-25T10:17:20;10.60;;;3.03;;
44832;SDS011;30569;51.252;9.830;2023-04-25T10:19:47;12.00;;;3.42;;
44832;SDS011;30569;51.252;9.830;2023-04-25T10:22:14;10.77;;;2.67;;
44832;SDS011;30569;51.252;9.830;2023-04-25T10:24:53;9.65;;;2.10;;
44832;SDS011;30569;51.252;9.830;2023-04-25T10:27:21;8.82;;;2.55;;
44832;SDS011;30569;51.252;9.830;2023-04-25T10:29:51;8.05;;;2.25;;
44832;SDS011;30569;51.252;9.830;2023-04-25T10:32:36;12.30;;;2.60;;
44832;SDS011;30569;51.252;9.830;2023-04-25T10:37:37;11.07;;;2.55;;
44832;SDS011;30569;51.252;9.830;2023-04-25T10:40:09;11.82;;;3.13;;
44832;SDS011;30569;51.252;9.830;2023-04-25T10:42:36;11.13;;;2.50;;
44832;SDS011;30569;51.252;9.830;2023-04-25T10:45:02;11.82;;;2.78;;
44832;SDS011;30569;51.252;9.830;2023-04-25T10:47:36;12.05;;;3.65;;
44832;SDS011;30569;51.252;9.830;2023-04-25T10:50:08;11.95;;;3.42;;
44832;SDS011;30569;51.252;9.830;2023-04-25T10:52:34;9.77;;;2.75;;
44832;SDS011;30569;51.252;9.830;2023-04-25T10:54:59;13.13;;;3.00;;
44832;SDS011;30569;51.252;9.830;2023-04-25T10:59:57;9.77;;;2.97;;
44832;SDS011;30569;51.252;9.830;2023-04-25T11:02:25;11.45;;;2.92;;
44832;SDS011;30569;51.252;9.830;2023-04-25T11:04:54;9.57;;;2.40;;
44832;SDS011;30569;51.252;9.830;2023-04-25T11:07:26;9.07;;;2.45;;
44832;SDS011;30569;51.252;9.830;2023-04-25T11:10:01;10.00;;;2.40;;
44832;SDS011;30569;51.252;9.830;2023-04-25T11:12:31;9.63;;;2.60;;
44832;SDS011;30569;51.252;9.830;2023-04-25T11:15:04;8.85;;;2.30;;
44832;SDS011;30569;51.252;9.830;2023-04-25T11:17:31;8.18;;;2.10;;
44832;SDS011;30569;51.252;9.830;2023-04-25T11:19:56;9.23;;;2.78;;
44832;SDS011;30569;51.252;9.830;2023-04-25T11:22:22;6.35;;;1.88;;
44832;SDS011;30569;51.252;9.830;2023-04-25T11:24:48;8.30;;;2.20;;
44832;SDS011;30569;51.252;9.830;2023-04-25T11:27:14;12.15;;;3.38;;
44832;SDS011;30569;51.252;9.830;2023-04-25T11:29:40;11.32;;;2.67;;
44832;SDS011;30569;51.252;9.830;2023-04-25T11:32:06;10.32;;;2.20;;
44832;SDS011;30569;51.252;9.830;2023-04-25T11:34:31;9.50;;;2.28;;
44832;SDS011;30569;51.252;9.830;2023-04-25T11:36:58;9.35;;;2.50;;
44832;SDS011;30569;51.252;9.830;2023-04-25T11:39:27;7.20;;;2.47;;
44832;SDS011;30569;51.252;9.830;2023-04-25T11:41:54;10.20;;;3.78;;
44832;SDS011;30569;51.252;9.830;2023-04-25T11:44:20;9.80;;;2.95;;
44832;SDS011;30569;51.252;9.830;2023-04-25T11:46:47;10.40;;;1.92;;
44832;SDS011;30569;51.252;9.830;2023-04-25T11:49:13;11.38;;;2.13;;
44832;SDS011;30569;51.252;9.830;2023-04-25T11:51:39;10.88;;;2.30;;
44832;SDS011;30569;51.252;9.830;2023-04-25T11:54:13;7.38;;;2.00;;
44832;SDS011;30569;51.252;9.830;2023-04-25T11:56:42;6.72;;;2.38;;
44832;SDS011;30569;51.252;9.830;2023-04-25T11:59:08;7.82;;;1.70;;
44832;SDS011;30569;51.252;9.830;2023-04-25T12:01:35;7.15;;;2.08;;
44832;SDS011;30569;51.252;9.830;2023-04-25T12:04:15;9.98;;;1.85;;
44832;SDS011;30569;51.252;9.830;2023-04-25T12:06:51;7.72;;;2.35;;
44832;SDS011;30569;51.252;9.830;2023-04-25T12:09:18;7.10;;;2.20;;
44832;SDS011;30569;51.252;9.830;2023-04-25T12:11:55;10.38;;;2.10;;
44832;SDS011;30569;51.252;9.830;2023-04-25T12:14:27;9.07;;;1.80;;
44832;SDS011;30569;51.252;9.830;2023-04-25T12:19:23;7.63;;;2.08;;
44832;SDS011;30569;51.252;9.830;2023-04-25T12:21:49;7.60;;;2.25;;
44832;SDS011;30569;51.252;9.830;2023-04-25T12:24:16;7.15;;;2.00;;
44832;SDS011;30569;51.252;9.830;2023-04-25T12:26:47;10.02;;;2.10;;
44832;SDS011;30569;51.252;9.830;2023-04-25T12:29:30;7.57;;;2.10;;
44832;SDS011;30569;51.252;9.830;2023-04-25T12:31:57;10.50;;;2.05;;
44832;SDS011;30569;51.252;9.830;2023-04-25T12:34:23;7.35;;;2.20;;
44832;SDS011;30569;51.252;9.830;2023-04-25T12:36:50;6.72;;;1.73;;
44832;SDS011;30569;51.252;9.830;2023-04-25T12:39:23;9.68;;;2.45;;
44832;SDS011;30569;51.252;9.830;2023-04-25T12:41:52;12.35;;;2.58;;
44832;SDS011;30569;51.252;9.830;2023-04-25T12:44:21;10.52;;;2.15;;
44832;SDS011;30569;51.252;9.830;2023-04-25T12:46:47;7.63;;;1.95;;
44832;SDS011;30569;51.252;9.830;2023-04-25T12:49:13;6.60;;;2.50;;
44832;SDS011;30569;51.252;9.830;2023-04-25T12:51:39;8.23;;;2.42;;
44832;SDS011;30569;51.252;9.830;2023-04-25T12:54:07;6.13;;;2.03;;
44832;SDS011;30569;51.252;9.830;2023-04-25T12:56:33;7.35;;;2.38;;
44832;SDS011;30569;51.252;9.830;2023-04-25T12:58:59;8.10;;;1.92;;
44832;SDS011;30569;51.252;9.830;2023-04-25T13:01:24;9.07;;;2.85;;
44832;SDS011;30569;51.252;9.830;2023-04-25T13:03:51;9.35;;;2.45;;
44832;SDS011;30569;51.252;9.830;2023-04-25T13:06:17;8.95;;;2.22;;
44832;SDS011;30569;51.252;9.830;2023-04-25T13:08:44;5.82;;;2.00;;
44832;SDS011;30569;51.252;9.830;2023-04-25T13:11:10;12.32;;;3.38;;
44832;SDS011;30569;51.252;9.830;2023-04-25T13:13:36;10.00;;;2.40;;
44832;SDS011;30569;51.252;9.830;2023-04-25T13:16:02;6.70;;;2.15;;
44832;SDS011;30569;51.252;9.830;2023-04-25T13:18:29;10.05;;;1.92;;
44832;SDS011;30569;51.252;9.830;2023-04-25T13:20:55;9.15;;;2.85;;
44832;SDS011;30569;51.252;9.830;2023-04-25T13:23:22;12.40;;;3.45;;
44832;SDS011;30569;51.252;9.830;2023-04-25T13:25:47;11.57;;;3.38;;
44832;SDS011;30569;51.252;9.830;2023-04-25T13:28:13;8.35;;;2.85;;
44832;SDS011;30569;51.252;9.830;2023-04-25T13:30:39;8.88;;;2.13;;
44832;SDS011;30569;51.252;9.830;2023-04-25T13:33:05;9.05;;;2.85;;
44832;SDS011;30569;51.252;9.830;2023-04-25T13:35:31;11.63;;;2.97;;
44832;SDS011;30569;51.252;9.830;2023-04-25T13:37:58;10.20;;;2.40;;
44832;SDS011;30569;51.252;9.830;2023-04-25T13:40:24;6.40;;;2.25;;
44832;SDS011;30569;51.252;9.830;2023-04-25T13:42:49;9.88;;;2.63;;
44832;SDS011;30569;51.252;9.830;2023-04-25T13:45:16;7.93;;;2.70;;
44832;SDS011;30569;51.252;9.830;2023-04-25T13:47:41;8.60;;;2.67;;
44832;SDS011;30569;51.252;9.830;2023-04-25T13:50:07;10.57;;;3.33;;
44832;SDS011;30569;51.252;9.830;2023-04-25T13:52:33;9.02;;;2.83;;
44832;SDS011;30569;51.252;9.830;2023-04-25T13:54:59;7.78;;;2.55;;
44832;SDS011;30569;51.252;9.830;2023-04-25T13:57:26;9.80;;;2.03;;
44832;SDS011;30569;51.252;9.830;2023-04-25T13:59:51;8.18;;;2.08;;
44832;SDS011;30569;51.252;9.830;2023-04-25T14:02:17;5.65;;;2.05;;
44832;SDS011;30569;51.252;9.830;2023-04-25T14:04:43;9.93;;;3.30;;
44832;SDS011;30569;51.252;9.830;2023-04-25T14:07:08;11.02;;;4.10;;
44832;SDS011;30569;51.252;9.830;2023-04-25T14:09:35;7.90;;;2.17;;
44832;SDS011;30569;51.252;9.830;2023-04-25T14:12:01;7.93;;;3.17;;
44832;SDS011;30569;51.252;9.830;2023-04-25T14:14:27;9.80;;;4.75;;
44832;SDS011;30569;51.252;9.830;2023-04-25T14:16:53;9.30;;;2.83;;
44832;SDS011;30569;51.252;9.830;2023-04-25T14:19:22;11.90;;;3.75;;
44832;SDS011;30569;51.252;9.830;2023-04-25T14:21:48;9.38;;;2.75;;
44832;SDS011;30569;51.252;9.830;2023-04-25T14:24:14;10.18;;;3.30;;
44832;SDS011;30569;51.252;9.830;2023-04-25T14:26:39;7.18;;;2.70;;
44832;SDS011;30569;51.252;9.830;2023-04-25T14:29:05;9.40;;;3.88;;
44832;SDS011;30569;51.252;9.830;2023-04-25T14:31:32;6.88;;;2.58;;
44832;SDS011;30569;51.252;9.830;2023-04-25T14:33:58;8.40;;;4.00;;
44832;SDS011;30569;51.252;9.830;2023-04-25T14:36:24;7.10;;;2.30;;
44832;SDS011;30569;51.252;9.830;2023-04-25T14:38:51;8.68;;;2.63;;
44832;SDS011;30569;51.252;9.830;2023-04-25T14:41:17;8.77;;;3.65;;
44832;SDS011;30569;51.252;9.830;2023-04-25T14:43:42;9.40;;;2.47;;
44832;SDS011;30569;51.252;9.830;2023-04-25T14:46:09;6.65;;;2.55;;
44832;SDS011;30569;51.252;9.830;2023-04-25T14:48:35;8.65;;;2.53;;
44832;SDS011;30569;51.252;9.830;2023-04-25T14:51:01;7.03;;;3.00;;